sensor_id;sensor_type;location;lat;lon;timestamp;temperature;humidity
28175;SHT30;59417;44.788;10.334;2023-08-06T00:00:24;21.67;67.84
28175;SHT30;59417;44.788;10.334;2023-08-06T00:02:50;21.74;67.29
28175;SHT30;59417;44.788;10.334;2023-08-06T00:05:16;21.60;67.77
28175;SHT30;59417;44.788;10.334;2023-08-06T00:07:47;21.32;68.76
28175;SHT30;59417;44.788;10.334;2023-08-06T00:10:13;21.20;68.95
28175;SHT30;59417;44.788;10.334;2023-08-06T00:12:38;21.02;69.72
28175;SHT30;59417;44.788;10.334;2023-08-06T00:15:04;21.08;69.07
28175;SHT30;59417;44.788;10.334;2023-08-06T00:17:30;21.05;69.38
28175;SHT30;59417;44.788;10.334;2023-08-06T00:19:55;21.33;68.57
28175;SHT30;59417;44.788;10.334;2023-08-06T00:22:21;21.19;69.43
28175;SHT30;59417;44.788;10.334;2023-08-06T00:24:47;21.04;69.50
28175;SHT30;59417;44.788;10.334;2023-08-06T00:27:13;21.23;68.27
28175;SHT30;59417;44.788;10.334;2023-08-06T00:29:38;21.18;68.46
28175;SHT30;59417;44.788;10.334;2023-08-06T00:32:04;21.23;68.32
28175;SHT30;59417;44.788;10.334;2023-08-06T00:34:29;21.18;69.32
28175;SHT30;59417;44.788;10.334;2023-08-06T00:36:55;21.11;69.03
28175;SHT30;59417;44.788;10.334;2023-08-06T00:39:21;21.06;69.18
28175;SHT30;59417;44.788;10.334;2023-08-06T00:41:46;21.20;68.35
28175;SHT30;59417;44.788;10.334;2023-08-06T00:44:39;21.12;69.35
28175;SHT30;59417;44.788;10.334;2023-08-06T00:47:09;20.98;69.80
28175;SHT30;59417;44.788;10.334;2023-08-06T00:49:36;20.88;69.73
28175;SHT30;59417;44.788;10.334;2023-08-06T00:52:03;20.96;69.67
28175;SHT30;59417;44.788;10.334;2023-08-06T00:54:34;21.05;69.80
28175;SHT30;59417;44.788;10.334;2023-08-06T00:57:02;21.18;70.79
28175;SHT30;59417;44.788;10.334;2023-08-06T00:59:36;20.95;70.32
28175;SHT30;59417;44.788;10.334;2023-08-06T01:02:03;20.88;70.35
28175;SHT30;59417;44.788;10.334;2023-08-06T01:04:29;20.91;69.86
28175;SHT30;59417;44.788;10.334;2023-08-06T01:07:27;20.87;70.55
28175;SHT30;59417;44.788;10.334;2023-08-06T01:10:26;21.04;70.19
28175;SHT30;59417;44.788;10.334;2023-08-06T01:13:11;20.92;70.11
28175;SHT30;59417;44.788;10.334;2023-08-06T01:15:49;20.91;69.71
28175;SHT30;59417;44.788;10.334;2023-08-06T01:18:16;20.94;69.99
28175;SHT30;59417;44.788;10.334;2023-08-06T01:20:42;20.98;69.76
28175;SHT30;59417;44.788;10.334;2023-08-06T01:23:11;20.78;71.00
28175;SHT30;59417;44.788;10.334;2023-08-06T01:25:49;20.72;71.17
28175;SHT30;59417;44.788;10.334;2023-08-06T01:31:16;21.04;69.34
28175;SHT30;59417;44.788;10.334;2023-08-06T01:33:45;21.06;69.18
28175;SHT30;59417;44.788;10.334;2023-08-06T01:36:16;21.11;68.86
28175;SHT30;59417;44.788;10.334;2023-08-06T01:38:44;21.12;68.49
28175;SHT30;59417;44.788;10.334;2023-08-06T01:41:09;21.12;68.28
28175;SHT30;59417;44.788;10.334;2023-08-06T01:43:36;21.11;68.37
28175;SHT30;59417;44.788;10.334;2023-08-06T01:46:01;21.12;68.29
28175;SHT30;59417;44.788;10.334;2023-08-06T01:48:27;21.20;67.88
28175;SHT30;59417;44.788;10.334;2023-08-06T01:50:52;21.23;67.82
28175;SHT30;59417;44.788;10.334;2023-08-06T01:53:18;21.20;68.02
28175;SHT30;59417;44.788;10.334;2023-08-06T01:55:48;21.19;68.06
28175;SHT30;59417;44.788;10.334;2023-08-06T01:58:24;21.18;67.23
28175;SHT30;59417;44.788;10.334;2023-08-06T02:00:56;21.15;68.86
28175;SHT30;59417;44.788;10.334;2023-08-06T02:03:23;21.20;68.30
28175;SHT30;59417;44.788;10.334;2023-08-06T02:05:48;21.19;68.20
28175;SHT30;59417;44.788;10.334;2023-08-06T02:08:14;21.15;69.35
28175;SHT30;59417;44.788;10.334;2023-08-06T02:10:40;21.11;68.93
28175;SHT30;59417;44.788;10.334;2023-08-06T02:13:06;21.09;68.59
28175;SHT30;59417;44.788;10.334;2023-08-06T02:15:32;21.25;68.20
28175;SHT30;59417;44.788;10.334;2023-08-06T02:17:58;21.22;68.78
28175;SHT30;59417;44.788;10.334;2023-08-06T02:20:24;21.14;68.55
28175;SHT30;59417;44.788;10.334;2023-08-06T02:22:49;21.14;68.84
28175;SHT30;59417;44.788;10.334;2023-08-06T02:25:15;21.05;68.92
28175;SHT30;59417;44.788;10.334;2023-08-06T02:27:42;21.20;67.61
28175;SHT30;59417;44.788;10.334;2023-08-06T02:30:08;21.28;68.57
28175;SHT30;59417;44.788;10.334;2023-08-06T02:32:33;21.20;68.68
28175;SHT30;59417;44.788;10.334;2023-08-06T02:35:01;21.23;68.41
28175;SHT30;59417;44.788;10.334;2023-08-06T02:37:27;21.12;68.72
28175;SHT30;59417;44.788;10.334;2023-08-06T02:39:53;21.09;68.76
28175;SHT30;59417;44.788;10.334;2023-08-06T02:42:19;21.08;69.32
28175;SHT30;59417;44.788;10.334;2023-08-06T02:44:45;20.91;69.84
28175;SHT30;59417;44.788;10.334;2023-08-06T02:47:10;20.90;69.68
28175;SHT30;59417;44.788;10.334;2023-08-06T02:49:36;20.81;70.23
28175;SHT30;59417;44.788;10.334;2023-08-06T02:52:02;20.67;70.40
28175;SHT30;59417;44.788;10.334;2023-08-06T02:54:28;20.58;70.55
28175;SHT30;59417;44.788;10.334;2023-08-06T02:56:54;20.47;70.67
28175;SHT30;59417;44.788;10.334;2023-08-06T02:59:31;20.48;71.02
28175;SHT30;59417;44.788;10.334;2023-08-06T03:02:04;20.45;70.96
28175;SHT30;59417;44.788;10.334;2023-08-06T03:04:41;20.44;70.91
28175;SHT30;59417;44.788;10.334;2023-08-06T03:07:07;20.39;70.87
28175;SHT30;59417;44.788;10.334;2023-08-06T03:09:41;20.43;71.39
28175;SHT30;59417;44.788;10.334;2023-08-06T03:12:07;20.39;71.48
28175;SHT30;59417;44.788;10.334;2023-08-06T03:14:33;20.30;71.67
28175;SHT30;59417;44.788;10.334;2023-08-06T03:16:59;20.40;71.05
28175;SHT30;59417;44.788;10.334;2023-08-06T03:19:25;20.30;71.32
28175;SHT30;59417;44.788;10.334;2023-08-06T03:21:50;20.34;71.07
28175;SHT30;59417;44.788;10.334;2023-08-06T03:24:16;20.17;71.78
28175;SHT30;59417;44.788;10.334;2023-08-06T03:26:44;20.20;72.00
28175;SHT30;59417;44.788;10.334;2023-08-06T03:29:11;20.17;71.48
28175;SHT30;59417;44.788;10.334;2023-08-06T03:31:37;20.14;71.70
28175;SHT30;59417;44.788;10.334;2023-08-06T03:34:03;20.05;71.75
28175;SHT30;59417;44.788;10.334;2023-08-06T03:36:30;19.99;72.78
28175;SHT30;59417;44.788;10.334;2023-08-06T03:38:56;19.98;72.48
28175;SHT30;59417;44.788;10.334;2023-08-06T03:41:22;19.93;72.43
28175;SHT30;59417;44.788;10.334;2023-08-06T03:43:47;19.86;73.12
28175;SHT30;59417;44.788;10.334;2023-08-06T03:46:19;19.89;73.14
28175;SHT30;59417;44.788;10.334;2023-08-06T03:48:45;19.86;73.06
28175;SHT30;59417;44.788;10.334;2023-08-06T03:51:12;19.85;73.60
28175;SHT30;59417;44.788;10.334;2023-08-06T03:53:38;19.85;73.38
28175;SHT30;59417;44.788;10.334;2023-08-06T03:56:04;19.86;72.96
28175;SHT30;59417;44.788;10.334;2023-08-06T03:58:31;19.79;73.48
28175;SHT30;59417;44.788;10.334;2023-08-06T04:01:01;19.83;73.53
28175;SHT30;59417;44.788;10.334;2023-08-06T04:03:32;19.76;73.19
28175;SHT30;59417;44.788;10.334;2023-08-06T04:05:59;19.72;73.31
28175;SHT30;59417;44.788;10.334;2023-08-06T04:08:26;19.61;73.17
28175;SHT30;59417;44.788;10.334;2023-08-06T04:10:52;19.63;73.22
28175;SHT30;59417;44.788;10.334;2023-08-06T04:13:18;19.54;72.68
28175;SHT30;59417;44.788;10.334;2023-08-06T04:15:44;19.51;72.60
28175;SHT30;59417;44.788;10.334;2023-08-06T04:18:10;19.57;72.64
28175;SHT30;59417;44.788;10.334;2023-08-06T04:20:45;19.59;72.32
28175;SHT30;59417;44.788;10.334;2023-08-06T04:23:11;19.66;72.16
28175;SHT30;59417;44.788;10.334;2023-08-06T04:25:37;19.69;71.24
28175;SHT30;59417;44.788;10.334;2023-08-06T04:28:02;19.68;71.57
28175;SHT30;59417;44.788;10.334;2023-08-06T04:30:28;19.62;70.90
28175;SHT30;59417;44.788;10.334;2023-08-06T04:32:56;19.61;71.01
28175;SHT30;59417;44.788;10.334;2023-08-06T04:35:21;19.52;71.07
28175;SHT30;59417;44.788;10.334;2023-08-06T04:37:47;19.51;70.73
28175;SHT30;59417;44.788;10.334;2023-08-06T04:40:12;19.58;70.39
28175;SHT30;59417;44.788;10.334;2023-08-06T04:42:39;19.57;69.18
28175;SHT30;59417;44.788;10.334;2023-08-06T04:45:05;19.61;69.26
28175;SHT30;59417;44.788;10.334;2023-08-06T04:47:31;19.65;68.42
28175;SHT30;59417;44.788;10.334;2023-08-06T04:49:56;19.63;67.36
28175;SHT30;59417;44.788;10.334;2023-08-06T04:52:22;19.66;66.97
28175;SHT30;59417;44.788;10.334;2023-08-06T04:54:48;19.66;66.76
28175;SHT30;59417;44.788;10.334;2023-08-06T04:57:13;19.78;66.07
28175;SHT30;59417;44.788;10.334;2023-08-06T04:59:39;19.86;65.28
28175;SHT30;59417;44.788;10.334;2023-08-06T05:02:04;19.98;64.10
28175;SHT30;59417;44.788;10.334;2023-08-06T05:04:30;20.12;63.06
28175;SHT30;59417;44.788;10.334;2023-08-06T05:06:56;20.21;61.33
28175;SHT30;59417;44.788;10.334;2023-08-06T05:09:21;20.33;61.01
28175;SHT30;59417;44.788;10.334;2023-08-06T05:11:47;20.43;60.10
28175;SHT30;59417;44.788;10.334;2023-08-06T05:14:13;20.48;60.36
28175;SHT30;59417;44.788;10.334;2023-08-06T05:16:39;20.58;59.80
28175;SHT30;59417;44.788;10.334;2023-08-06T05:19:04;20.65;59.39
28175;SHT30;59417;44.788;10.334;2023-08-06T05:21:30;20.74;60.84
28175;SHT30;59417;44.788;10.334;2023-08-06T05:23:55;20.85;58.70
28175;SHT30;59417;44.788;10.334;2023-08-06T05:26:21;20.91;58.58
28175;SHT30;59417;44.788;10.334;2023-08-06T05:28:47;20.98;58.60
28175;SHT30;59417;44.788;10.334;2023-08-06T05:31:12;21.11;57.68
28175;SHT30;59417;44.788;10.334;2023-08-06T05:33:38;21.20;57.37
28175;SHT30;59417;44.788;10.334;2023-08-06T05:36:04;21.25;57.18
28175;SHT30;59417;44.788;10.334;2023-08-06T05:38:30;21.36;56.82
28175;SHT30;59417;44.788;10.334;2023-08-06T05:40:55;21.39;56.17
28175;SHT30;59417;44.788;10.334;2023-08-06T05:43:22;21.43;55.89
28175;SHT30;59417;44.788;10.334;2023-08-06T05:45:50;21.49;56.12
28175;SHT30;59417;44.788;10.334;2023-08-06T05:48:16;21.50;57.21
28175;SHT30;59417;44.788;10.334;2023-08-06T05:50:41;21.53;55.69
28175;SHT30;59417;44.788;10.334;2023-08-06T05:53:07;21.56;56.41
28175;SHT30;59417;44.788;10.334;2023-08-06T05:55:33;21.60;56.39
28175;SHT30;59417;44.788;10.334;2023-08-06T05:57:59;21.65;56.41
28175;SHT30;59417;44.788;10.334;2023-08-06T06:00:25;21.71;55.88
28175;SHT30;59417;44.788;10.334;2023-08-06T06:02:51;21.77;57.17
28175;SHT30;59417;44.788;10.334;2023-08-06T06:05:16;21.83;56.50
28175;SHT30;59417;44.788;10.334;2023-08-06T06:07:42;21.94;56.75
28175;SHT30;59417;44.788;10.334;2023-08-06T06:10:08;22.08;56.11
28175;SHT30;59417;44.788;10.334;2023-08-06T06:12:33;22.14;56.64
28175;SHT30;59417;44.788;10.334;2023-08-06T06:14:59;22.21;57.19
28175;SHT30;59417;44.788;10.334;2023-08-06T06:17:29;22.24;56.55
28175;SHT30;59417;44.788;10.334;2023-08-06T06:19:55;22.28;57.89
28175;SHT30;59417;44.788;10.334;2023-08-06T06:22:20;22.29;57.86
28175;SHT30;59417;44.788;10.334;2023-08-06T06:24:46;22.28;57.20
28175;SHT30;59417;44.788;10.334;2023-08-06T06:27:11;22.29;56.99
28175;SHT30;59417;44.788;10.334;2023-08-06T06:29:39;22.32;56.75
28175;SHT30;59417;44.788;10.334;2023-08-06T06:32:05;22.42;56.62
28175;SHT30;59417;44.788;10.334;2023-08-06T06:34:30;22.41;56.97
28175;SHT30;59417;44.788;10.334;2023-08-06T06:36:56;22.44;56.36
28175;SHT30;59417;44.788;10.334;2023-08-06T06:39:21;22.39;56.73
28175;SHT30;59417;44.788;10.334;2023-08-06T06:41:47;22.41;56.63
28175;SHT30;59417;44.788;10.334;2023-08-06T06:44:22;22.51;56.41
28175;SHT30;59417;44.788;10.334;2023-08-06T06:46:48;22.54;56.48
28175;SHT30;59417;44.788;10.334;2023-08-06T06:49:13;22.61;56.95
28175;SHT30;59417;44.788;10.334;2023-08-06T06:51:39;22.64;57.29
28175;SHT30;59417;44.788;10.334;2023-08-06T06:54:05;22.61;58.18
28175;SHT30;59417;44.788;10.334;2023-08-06T06:56:30;22.61;58.26
28175;SHT30;59417;44.788;10.334;2023-08-06T06:58:56;22.76;57.85
28175;SHT30;59417;44.788;10.334;2023-08-06T07:01:22;22.88;58.44
28175;SHT30;59417;44.788;10.334;2023-08-06T07:03:47;22.89;59.15
28175;SHT30;59417;44.788;10.334;2023-08-06T07:06:13;22.92;58.11
28175;SHT30;59417;44.788;10.334;2023-08-06T07:08:41;22.96;58.68
28175;SHT30;59417;44.788;10.334;2023-08-06T07:11:07;22.99;58.97
28175;SHT30;59417;44.788;10.334;2023-08-06T07:13:34;23.09;59.42
28175;SHT30;59417;44.788;10.334;2023-08-06T07:15:59;23.09;58.97
28175;SHT30;59417;44.788;10.334;2023-08-06T07:18:25;23.06;59.58
28175;SHT30;59417;44.788;10.334;2023-08-06T07:20:52;23.13;59.44
28175;SHT30;59417;44.788;10.334;2023-08-06T07:23:20;23.18;58.95
28175;SHT30;59417;44.788;10.334;2023-08-06T07:25:46;23.23;58.28
28175;SHT30;59417;44.788;10.334;2023-08-06T07:28:13;23.18;58.83
28175;SHT30;59417;44.788;10.334;2023-08-06T07:30:39;23.23;58.21
28175;SHT30;59417;44.788;10.334;2023-08-06T07:33:06;23.27;57.85
28175;SHT30;59417;44.788;10.334;2023-08-06T07:35:32;23.39;58.43
28175;SHT30;59417;44.788;10.334;2023-08-06T07:37:58;23.43;58.00
28175;SHT30;59417;44.788;10.334;2023-08-06T07:40:24;23.41;58.12
28175;SHT30;59417;44.788;10.334;2023-08-06T07:42:50;23.60;57.30
28175;SHT30;59417;44.788;10.334;2023-08-06T07:45:15;23.65;56.95
28175;SHT30;59417;44.788;10.334;2023-08-06T07:47:41;23.75;55.52
28175;SHT30;59417;44.788;10.334;2023-08-06T07:50:08;23.81;55.13
28175;SHT30;59417;44.788;10.334;2023-08-06T07:52:34;23.92;55.11
28175;SHT30;59417;44.788;10.334;2023-08-06T07:55:00;23.94;56.15
28175;SHT30;59417;44.788;10.334;2023-08-06T07:57:27;24.04;56.50
28175;SHT30;59417;44.788;10.334;2023-08-06T07:59:53;24.12;55.20
28175;SHT30;59417;44.788;10.334;2023-08-06T08:02:19;24.01;55.29
28175;SHT30;59417;44.788;10.334;2023-08-06T08:04:45;24.01;55.53
28175;SHT30;59417;44.788;10.334;2023-08-06T08:07:13;24.04;56.02
28175;SHT30;59417;44.788;10.334;2023-08-06T08:09:38;24.19;54.98
28175;SHT30;59417;44.788;10.334;2023-08-06T08:12:04;24.24;54.82
28175;SHT30;59417;44.788;10.334;2023-08-06T08:14:30;24.32;54.65
28175;SHT30;59417;44.788;10.334;2023-08-06T08:17:04;24.42;55.09
28175;SHT30;59417;44.788;10.334;2023-08-06T08:19:31;24.53;55.55
28175;SHT30;59417;44.788;10.334;2023-08-06T08:21:58;24.49;55.80
28175;SHT30;59417;44.788;10.334;2023-08-06T08:24:24;24.57;55.50
28175;SHT30;59417;44.788;10.334;2023-08-06T08:26:50;24.65;54.70
28175;SHT30;59417;44.788;10.334;2023-08-06T08:29:16;24.73;53.61
28175;SHT30;59417;44.788;10.334;2023-08-06T08:31:42;24.76;54.07
28175;SHT30;59417;44.788;10.334;2023-08-06T08:34:08;24.83;54.91
28175;SHT30;59417;44.788;10.334;2023-08-06T08:36:34;24.96;52.96
28175;SHT30;59417;44.788;10.334;2023-08-06T08:39:00;25.00;53.53
28175;SHT30;59417;44.788;10.334;2023-08-06T08:41:28;25.11;53.28
28175;SHT30;59417;44.788;10.334;2023-08-06T08:43:55;25.14;53.45
28175;SHT30;59417;44.788;10.334;2023-08-06T08:46:25;25.26;51.98
28175;SHT30;59417;44.788;10.334;2023-08-06T08:48:51;25.37;52.53
28175;SHT30;59417;44.788;10.334;2023-08-06T08:51:17;25.49;52.34
28175;SHT30;59417;44.788;10.334;2023-08-06T08:53:44;25.55;50.95
28175;SHT30;59417;44.788;10.334;2023-08-06T08:56:11;25.67;50.33
28175;SHT30;59417;44.788;10.334;2023-08-06T08:58:38;25.64;48.25
28175;SHT30;59417;44.788;10.334;2023-08-06T09:01:04;25.68;48.48
28175;SHT30;59417;44.788;10.334;2023-08-06T09:03:30;25.78;49.98
28175;SHT30;59417;44.788;10.334;2023-08-06T09:05:57;26.00;48.21
28175;SHT30;59417;44.788;10.334;2023-08-06T09:08:27;26.05;48.56
28175;SHT30;59417;44.788;10.334;2023-08-06T09:10:55;26.18;46.98
28175;SHT30;59417;44.788;10.334;2023-08-06T09:13:22;26.02;46.20
28175;SHT30;59417;44.788;10.334;2023-08-06T09:15:49;26.09;45.69
28175;SHT30;59417;44.788;10.334;2023-08-06T09:18:25;26.25;47.23
28175;SHT30;59417;44.788;10.334;2023-08-06T09:20:52;26.23;45.83
28175;SHT30;59417;44.788;10.334;2023-08-06T09:23:17;26.19;44.55
28175;SHT30;59417;44.788;10.334;2023-08-06T09:25:43;26.26;45.61
28175;SHT30;59417;44.788;10.334;2023-08-06T09:28:09;26.35;46.43
28175;SHT30;59417;44.788;10.334;2023-08-06T09:30:39;26.41;44.54
28175;SHT30;59417;44.788;10.334;2023-08-06T09:33:22;26.41;45.35
28175;SHT30;59417;44.788;10.334;2023-08-06T09:35:48;26.56;45.46
28175;SHT30;59417;44.788;10.334;2023-08-06T09:38:13;26.68;43.29
28175;SHT30;59417;44.788;10.334;2023-08-06T09:40:40;26.79;43.91
28175;SHT30;59417;44.788;10.334;2023-08-06T09:43:06;26.98;42.76
28175;SHT30;59417;44.788;10.334;2023-08-06T09:45:36;26.92;40.34
28175;SHT30;59417;44.788;10.334;2023-08-06T09:48:03;26.94;40.01
28175;SHT30;59417;44.788;10.334;2023-08-06T09:50:33;27.12;38.83
28175;SHT30;59417;44.788;10.334;2023-08-06T09:53:04;27.18;34.92
28175;SHT30;59417;44.788;10.334;2023-08-06T09:55:34;27.24;35.58
28175;SHT30;59417;44.788;10.334;2023-08-06T09:58:00;27.29;35.74
28175;SHT30;59417;44.788;10.334;2023-08-06T10:00:26;27.19;34.14
28175;SHT30;59417;44.788;10.334;2023-08-06T10:02:53;27.25;35.05
28175;SHT30;59417;44.788;10.334;2023-08-06T10:05:22;27.42;35.32
28175;SHT30;59417;44.788;10.334;2023-08-06T10:07:48;27.55;34.96
28175;SHT30;59417;44.788;10.334;2023-08-06T10:10:16;27.61;33.67
28175;SHT30;59417;44.788;10.334;2023-08-06T10:12:48;27.45;29.74
28175;SHT30;59417;44.788;10.334;2023-08-06T10:15:16;27.61;31.89
28175;SHT30;59417;44.788;10.334;2023-08-06T10:17:45;27.77;31.13
28175;SHT30;59417;44.788;10.334;2023-08-06T10:20:11;27.77;30.85
28175;SHT30;59417;44.788;10.334;2023-08-06T10:22:42;27.94;31.40
28175;SHT30;59417;44.788;10.334;2023-08-06T10:25:08;27.90;30.70
28175;SHT30;59417;44.788;10.334;2023-08-06T10:27:40;27.80;29.15
28175;SHT30;59417;44.788;10.334;2023-08-06T10:32:52;28.05;28.47
28175;SHT30;59417;44.788;10.334;2023-08-06T10:38:14;28.03;28.67
28175;SHT30;59417;44.788;10.334;2023-08-06T10:40:41;28.13;29.81
28175;SHT30;59417;44.788;10.334;2023-08-06T10:43:28;28.28;27.65
28175;SHT30;59417;44.788;10.334;2023-08-06T10:45:54;28.30;27.00
28175;SHT30;59417;44.788;10.334;2023-08-06T10:48:40;28.12;27.90
28175;SHT30;59417;44.788;10.334;2023-08-06T10:51:13;28.18;28.22
28175;SHT30;59417;44.788;10.334;2023-08-06T10:53:45;28.31;29.15
28175;SHT30;59417;44.788;10.334;2023-08-06T10:56:22;28.51;29.22
28175;SHT30;59417;44.788;10.334;2023-08-06T10:58:49;28.47;27.18
28175;SHT30;59417;44.788;10.334;2023-08-06T11:01:17;28.61;29.08
28175;SHT30;59417;44.788;10.334;2023-08-06T11:03:45;28.54;28.11
28175;SHT30;59417;44.788;10.334;2023-08-06T11:06:17;28.51;26.71
28175;SHT30;59417;44.788;10.334;2023-08-06T11:08:51;28.60;28.06
28175;SHT30;59417;44.788;10.334;2023-08-06T11:11:17;28.54;26.48
28175;SHT30;59417;44.788;10.334;2023-08-06T11:13:47;28.68;27.56
28175;SHT30;59417;44.788;10.334;2023-08-06T11:16:14;28.74;28.47
28175;SHT30;59417;44.788;10.334;2023-08-06T11:18:40;28.74;27.12
28175;SHT30;59417;44.788;10.334;2023-08-06T11:21:07;28.77;28.62
28175;SHT30;59417;44.788;10.334;2023-08-06T11:23:34;28.89;27.39
28175;SHT30;59417;44.788;10.334;2023-08-06T11:26:00;28.92;27.33
28175;SHT30;59417;44.788;10.334;2023-08-06T11:28:26;28.91;27.65
28175;SHT30;59417;44.788;10.334;2023-08-06T11:30:52;28.68;26.77
28175;SHT30;59417;44.788;10.334;2023-08-06T11:33:25;28.65;26.53
28175;SHT30;59417;44.788;10.334;2023-08-06T11:35:55;28.82;27.32
28175;SHT30;59417;44.788;10.334;2023-08-06T11:38:25;28.77;27.49
28175;SHT30;59417;44.788;10.334;2023-08-06T11:40:51;28.82;28.08
28175;SHT30;59417;44.788;10.334;2023-08-06T11:43:19;28.94;27.46
28175;SHT30;59417;44.788;10.334;2023-08-06T11:45:46;29.00;27.89
28175;SHT30;59417;44.788;10.334;2023-08-06T11:48:12;28.99;28.88
28175;SHT30;59417;44.788;10.334;2023-08-06T11:50:38;29.05;27.92
28175;SHT30;59417;44.788;10.334;2023-08-06T11:53:04;29.12;28.25
28175;SHT30;59417;44.788;10.334;2023-08-06T11:55:30;29.02;27.60
28175;SHT30;59417;44.788;10.334;2023-08-06T11:57:57;29.23;27.96
28175;SHT30;59417;44.788;10.334;2023-08-06T12:00:24;29.47;27.86
28175;SHT30;59417;44.788;10.334;2023-08-06T12:02:50;29.61;27.61
28175;SHT30;59417;44.788;10.334;2023-08-06T12:05:22;29.70;29.26
28175;SHT30;59417;44.788;10.334;2023-08-06T12:07:58;29.59;27.44
28175;SHT30;59417;44.788;10.334;2023-08-06T12:10:25;29.53;26.89
28175;SHT30;59417;44.788;10.334;2023-08-06T12:12:51;29.74;27.12
28175;SHT30;59417;44.788;10.334;2023-08-06T12:15:17;29.76;26.48
28175;SHT30;59417;44.788;10.334;2023-08-06T12:17:42;29.61;27.07
28175;SHT30;59417;44.788;10.334;2023-08-06T12:20:09;29.64;27.28
28175;SHT30;59417;44.788;10.334;2023-08-06T12:22:36;29.51;25.81
28175;SHT30;59417;44.788;10.334;2023-08-06T12:25:04;29.51;26.01
28175;SHT30;59417;44.788;10.334;2023-08-06T12:27:34;29.70;26.13
28175;SHT30;59417;44.788;10.334;2023-08-06T12:29:59;29.90;27.40
28175;SHT30;59417;44.788;10.334;2023-08-06T12:32:25;30.21;28.72
28175;SHT30;59417;44.788;10.334;2023-08-06T12:34:51;30.29;27.87
28175;SHT30;59417;44.788;10.334;2023-08-06T12:37:16;30.32;27.04
28175;SHT30;59417;44.788;10.334;2023-08-06T12:39:42;30.44;27.40
28175;SHT30;59417;44.788;10.334;2023-08-06T12:42:08;30.41;27.13
28175;SHT30;59417;44.788;10.334;2023-08-06T12:44:33;30.28;26.07
28175;SHT30;59417;44.788;10.334;2023-08-06T12:46:59;30.47;26.71
28175;SHT30;59417;44.788;10.334;2023-08-06T12:49:25;30.32;25.73
28175;SHT30;59417;44.788;10.334;2023-08-06T12:51:52;30.39;26.11
28175;SHT30;59417;44.788;10.334;2023-08-06T12:54:19;30.22;26.12
28175;SHT30;59417;44.788;10.334;2023-08-06T12:56:46;30.17;26.06
28175;SHT30;59417;44.788;10.334;2023-08-06T12:59:14;30.22;27.51
28175;SHT30;59417;44.788;10.334;2023-08-06T13:01:40;30.03;25.82
28175;SHT30;59417;44.788;10.334;2023-08-06T13:04:06;30.25;26.61
28175;SHT30;59417;44.788;10.334;2023-08-06T13:06:31;30.44;27.24
28175;SHT30;59417;44.788;10.334;2023-08-06T13:09:03;30.51;27.36
28175;SHT30;59417;44.788;10.334;2023-08-06T13:11:30;30.44;26.69
28175;SHT30;59417;44.788;10.334;2023-08-06T13:14:07;30.54;25.55
28175;SHT30;59417;44.788;10.334;2023-08-06T13:16:33;30.52;24.74
28175;SHT30;59417;44.788;10.334;2023-08-06T13:18:59;30.44;26.17
28175;SHT30;59417;44.788;10.334;2023-08-06T13:24:10;30.31;23.90
28175;SHT30;59417;44.788;10.334;2023-08-06T13:26:36;30.56;24.38
28175;SHT30;59417;44.788;10.334;2023-08-06T13:29:02;30.66;24.47
28175;SHT30;59417;44.788;10.334;2023-08-06T13:31:28;30.58;22.91
28175;SHT30;59417;44.788;10.334;2023-08-06T13:33:55;30.49;21.05
28175;SHT30;59417;44.788;10.334;2023-08-06T13:36:23;30.35;21.10
28175;SHT30;59417;44.788;10.334;2023-08-06T13:38:49;30.51;21.22
28175;SHT30;59417;44.788;10.334;2023-08-06T13:41:15;30.55;21.93
28175;SHT30;59417;44.788;10.334;2023-08-06T13:43:41;30.38;20.26
28175;SHT30;59417;44.788;10.334;2023-08-06T13:46:06;30.47;19.99
28175;SHT30;59417;44.788;10.334;2023-08-06T13:48:32;30.45;19.68
28175;SHT30;59417;44.788;10.334;2023-08-06T13:50:58;30.52;21.16
28175;SHT30;59417;44.788;10.334;2023-08-06T13:53:24;30.44;19.74
28175;SHT30;59417;44.788;10.334;2023-08-06T13:55:55;30.52;22.01
28175;SHT30;59417;44.788;10.334;2023-08-06T13:58:22;30.55;20.57
28175;SHT30;59417;44.788;10.334;2023-08-06T14:00:47;30.51;19.61
28175;SHT30;59417;44.788;10.334;2023-08-06T14:03:13;30.54;21.89
28175;SHT30;59417;44.788;10.334;2023-08-06T14:05:39;30.73;20.99
28175;SHT30;59417;44.788;10.334;2023-08-06T14:08:04;30.61;18.50
28175;SHT30;59417;44.788;10.334;2023-08-06T14:10:30;30.61;21.08
28175;SHT30;59417;44.788;10.334;2023-08-06T14:12:56;30.56;20.71
28175;SHT30;59417;44.788;10.334;2023-08-06T14:15:21;30.78;19.56
28175;SHT30;59417;44.788;10.334;2023-08-06T14:17:47;30.72;20.42
28175;SHT30;59417;44.788;10.334;2023-08-06T14:20:13;30.72;21.05
28175;SHT30;59417;44.788;10.334;2023-08-06T14:22:38;30.83;22.25
28175;SHT30;59417;44.788;10.334;2023-08-06T14:25:04;30.83;22.11
28175;SHT30;59417;44.788;10.334;2023-08-06T14:27:30;30.89;21.59
28175;SHT30;59417;44.788;10.334;2023-08-06T14:29:56;30.75;19.47
28175;SHT30;59417;44.788;10.334;2023-08-06T14:32:21;30.72;18.01
28175;SHT30;59417;44.788;10.334;2023-08-06T14:34:47;30.68;18.76
28175;SHT30;59417;44.788;10.334;2023-08-06T14:37:13;30.62;20.17
28175;SHT30;59417;44.788;10.334;2023-08-06T14:39:38;30.55;19.43
28175;SHT30;59417;44.788;10.334;2023-08-06T14:42:04;30.59;19.43
28175;SHT30;59417;44.788;10.334;2023-08-06T14:44:30;30.71;19.32
28175;SHT30;59417;44.788;10.334;2023-08-06T14:46:56;30.69;19.87
28175;SHT30;59417;44.788;10.334;2023-08-06T14:49:23;30.90;20.11
28175;SHT30;59417;44.788;10.334;2023-08-06T14:51:49;30.93;19.35
28175;SHT30;59417;44.788;10.334;2023-08-06T14:54:15;30.75;19.05
28175;SHT30;59417;44.788;10.334;2023-08-06T14:56:41;30.80;20.41
28175;SHT30;59417;44.788;10.334;2023-08-06T14:59:06;30.80;18.74
28175;SHT30;59417;44.788;10.334;2023-08-06T15:01:32;30.73;19.34
28175;SHT30;59417;44.788;10.334;2023-08-06T15:03:58;30.82;18.95
28175;SHT30;59417;44.788;10.334;2023-08-06T15:06:24;30.75;20.17
28175;SHT30;59417;44.788;10.334;2023-08-06T15:08:50;30.73;18.78
28175;SHT30;59417;44.788;10.334;2023-08-06T15:11:15;30.80;19.02
28175;SHT30;59417;44.788;10.334;2023-08-06T15:13:41;30.92;18.91
28175;SHT30;59417;44.788;10.334;2023-08-06T15:16:07;31.00;19.64
28175;SHT30;59417;44.788;10.334;2023-08-06T15:18:32;30.89;18.31
28175;SHT30;59417;44.788;10.334;2023-08-06T15:20:58;30.93;18.00
28175;SHT30;59417;44.788;10.334;2023-08-06T15:23:24;30.95;19.18
28175;SHT30;59417;44.788;10.334;2023-08-06T15:25:50;30.83;17.91